createdAt,value
2019-03-04T00:02:58.349Z,9.9
2019-03-04T00:07:58.339Z,9.9
2019-03-04T00:12:58.305Z,9.7
2019-03-04T00:17:58.317Z,9.7
2019-03-04T00:22:58.331Z,9.8
2019-03-04T00:27:58.287Z,9.9
2019-03-04T00:32:58.285Z,9.9
2019-03-04T00:42:59.103Z,10
2019-03-04T00:47:59.006Z,10
2019-03-04T00:52:59.024Z,10
2019-03-04T00:57:59.042Z,9.9
2019-03-04T01:02:58.984Z,10
2019-03-04T01:07:59.008Z,10
2019-03-04T01:12:59.038Z,9.9
2019-03-04T01:17:58.985Z,9.9
2019-03-04T01:22:59.010Z,9.9
2019-03-04T01:27:59.012Z,9.8
2019-03-04T01:32:58.990Z,9.7
2019-03-04T01:37:58.961Z,9.7
2019-03-04T01:42:58.994Z,9.8
2019-03-04T01:47:58.979Z,9.9
2019-03-04T01:52:58.982Z,9.9
2019-03-04T01:57:58.978Z,9.9
2019-03-04T02:02:58.942Z,9.9
2019-03-04T02:07:58.930Z,9.9
2019-03-04T02:12:58.913Z,9.9
2019-03-04T02:17:58.925Z,9.9
2019-03-04T02:22:58.937Z,9.8
2019-03-04T02:27:58.940Z,9.8
2019-03-04T02:32:58.941Z,9.8
2019-03-04T02:37:58.942Z,9.8
2019-03-04T02:42:58.936Z,9.8
2019-03-04T02:47:58.894Z,9.9
2019-03-04T02:51:47.671Z,9.8
2019-03-04T02:56:47.644Z,9.8
2019-03-04T03:01:47.671Z,9.8
2019-03-04T03:06:48.434Z,9.8
2019-03-04T03:11:48.395Z,9.8
2019-03-04T03:16:48.405Z,9.8
2019-03-04T03:21:48.390Z,9.8
2019-03-04T03:26:48.383Z,9.8
2019-03-04T03:31:48.439Z,9.8
2019-03-04T03:36:48.393Z,9.8
2019-03-04T03:41:48.350Z,9.8
2019-03-04T03:46:48.326Z,9.6
2019-03-04T03:51:48.320Z,9.5
2019-03-04T04:01:48.342Z,9.6
2019-03-04T04:06:48.356Z,9.7
2019-03-04T04:11:48.283Z,9.8
2019-03-04T04:16:48.291Z,9.8
2019-03-04T04:21:48.307Z,9.8
2019-03-04T04:26:48.341Z,9.8
2019-03-04T04:31:48.298Z,9.8
2019-03-04T04:36:48.294Z,9.8
2019-03-04T04:41:48.277Z,9.8
2019-03-04T04:46:48.254Z,9.8
2019-03-04T04:51:48.307Z,9.8
2019-03-04T04:56:48.268Z,9.8
2019-03-04T05:01:48.215Z,9.8
2019-03-04T05:06:48.230Z,9.8
2019-03-04T05:11:48.274Z,9.8
2019-03-04T05:13:46.898Z,9.8
2019-03-04T05:18:46.920Z,9.8
2019-03-04T05:23:46.876Z,9.9
2019-03-04T05:28:46.832Z,9.9
2019-03-04T05:33:46.844Z,9.9
2019-03-04T05:38:46.860Z,9.9
2019-03-04T05:43:46.851Z,9.9
2019-03-04T05:48:46.858Z,10
2019-03-04T05:53:46.826Z,9.9
2019-03-04T05:58:46.845Z,10
2019-03-04T06:03:46.821Z,10
2019-03-04T06:08:46.824Z,10
2019-03-04T06:13:46.848Z,10.1
2019-03-04T06:18:46.811Z,10.1
2019-03-04T06:23:46.777Z,10.1
2019-03-04T06:28:46.768Z,10.1
2019-03-04T06:33:46.811Z,10
2019-03-04T06:38:46.769Z,10
2019-03-04T06:43:46.779Z,10
2019-03-04T06:48:46.783Z,10.1
2019-03-04T06:53:46.750Z,10.2
2019-03-04T06:58:46.758Z,10.2
2019-03-04T07:03:46.780Z,10.2
2019-03-04T07:08:46.737Z,10.3
2019-03-04T07:13:46.723Z,10.3
2019-03-04T07:18:46.749Z,10.3
2019-03-04T07:23:46.754Z,10.3
2019-03-04T07:28:46.807Z,10.4
2019-03-04T07:33:46.696Z,10.4
2019-03-04T07:38:46.687Z,10.4
2019-03-04T07:43:46.678Z,10.5
2019-03-04T07:48:46.718Z,10.4
2019-03-04T07:53:47.160Z,10.5
2019-03-04T07:58:46.656Z,10.6
2019-03-04T08:03:46.688Z,10.6
2019-03-04T08:08:46.693Z,10.7
2019-03-04T08:13:46.690Z,10.7
2019-03-04T08:18:46.664Z,10.7
2019-03-04T08:23:46.686Z,10.8
2019-03-04T08:28:46.688Z,10.8
2019-03-04T08:33:46.682Z,10.9
2019-03-04T08:38:46.606Z,10.9
2019-03-04T08:43:46.630Z,11
2019-03-04T08:48:46.617Z,11
2019-03-04T08:53:46.576Z,11
2019-03-04T08:58:46.627Z,11.1
2019-03-04T09:03:46.627Z,11.2
2019-03-04T09:08:46.598Z,11.3
2019-03-04T09:13:46.651Z,11.3
2019-03-04T09:18:46.587Z,11.3
2019-03-04T09:23:46.594Z,11.2
2019-03-04T09:29:15.299Z,11.3
2019-03-04T09:34:15.336Z,11.3
2019-03-04T09:39:15.345Z,11.3
2019-03-04T09:44:15.297Z,11.3
2019-03-04T09:49:15.280Z,11.3
2019-03-04T09:54:15.321Z,11.3
2019-03-04T09:59:15.265Z,11.3
2019-03-04T10:04:17.460Z,11.3
2019-03-04T10:09:16.048Z,11.3
2019-03-04T10:14:16.135Z,11.3
2019-03-04T10:19:15.967Z,11.3
2019-03-04T10:24:16.026Z,11.4
2019-03-04T10:29:15.991Z,11.4
2019-03-04T10:34:15.959Z,11.4
2019-03-04T10:39:22.756Z,11.5
2019-03-04T10:44:15.990Z,11.5
2019-03-04T10:49:16.045Z,11.7
2019-03-04T10:54:15.964Z,11.6
2019-03-04T10:59:15.953Z,11.7
2019-03-04T11:04:15.952Z,11.7
2019-03-04T11:09:15.935Z,11.7
2019-03-04T11:14:15.927Z,11.6
2019-03-04T11:19:15.952Z,11.6
2019-03-04T11:24:15.972Z,11.6
2019-03-04T11:29:15.933Z,11.7
2019-03-04T11:34:15.889Z,11.7
2019-03-04T11:39:15.915Z,11.7
2019-03-04T11:44:15.863Z,11.7
2019-03-04T11:49:15.874Z,11.8
2019-03-04T11:54:15.910Z,11.8
2019-03-04T11:59:15.908Z,11.9
2019-03-04T12:04:15.856Z,11.9
2019-03-04T12:09:15.912Z,11.9
2019-03-04T12:14:15.868Z,11.8
2019-03-04T12:19:15.836Z,11.9
2019-03-04T12:24:17.019Z,11.9
2019-03-04T12:29:15.880Z,12
2019-03-04T12:34:25.253Z,12
2019-03-04T12:39:15.842Z,12
2019-03-04T12:44:15.856Z,12
2019-03-04T12:49:18.611Z,12
2019-03-04T12:54:15.854Z,12
2019-03-04T12:59:16.533Z,11.9
2019-03-04T13:04:16.577Z,11.9
2019-03-04T13:13:21.247Z,12
2019-03-04T13:18:21.257Z,12
2019-03-04T13:23:21.205Z,12.1
2019-03-04T13:28:21.202Z,12.1
2019-03-04T13:33:21.220Z,12.1
2019-03-04T13:38:21.182Z,12.1
2019-03-04T13:43:23.243Z,12.1
2019-03-04T13:48:21.188Z,12.1
2019-03-04T13:53:21.173Z,12.2
2019-03-04T13:58:21.186Z,12.2
2019-03-04T14:08:22.681Z,12.2
2019-03-04T14:13:22.683Z,12.2
2019-03-04T14:18:22.648Z,12.3
2019-03-04T14:23:22.635Z,12.4
2019-03-04T14:28:22.656Z,12.6
2019-03-04T14:33:22.627Z,12.5
2019-03-04T14:38:22.655Z,12.5
2019-03-04T14:43:22.655Z,12.6
2019-03-04T14:48:22.724Z,12.7
2019-03-04T14:58:25.476Z,12.6
2019-03-04T15:03:25.499Z,12.6
2019-03-04T15:08:25.485Z,12.5
2019-03-04T15:13:25.507Z,12.5
2019-03-04T15:18:25.441Z,12.5
2019-03-04T15:23:26.221Z,12.4
2019-03-04T15:28:26.208Z,12.3
2019-03-04T15:33:26.171Z,12.3
2019-03-04T15:38:01.504Z,12.3
2019-03-04T15:43:03.432Z,12.3
2019-03-04T15:48:01.430Z,12.3
2019-03-04T15:53:01.418Z,12.3
2019-03-04T15:58:01.409Z,12.2
2019-03-04T16:03:01.424Z,12.2
2019-03-04T16:08:08.360Z,12.2
2019-03-04T16:13:01.420Z,12.1
2019-03-04T16:18:01.376Z,12.1
2019-03-04T16:23:01.383Z,12.1
2019-03-04T16:28:01.388Z,12.1
2019-03-04T16:33:01.378Z,12.1
2019-03-04T16:38:01.403Z,12.1
2019-03-04T16:43:01.379Z,12.1
2019-03-04T16:48:01.430Z,12.1
2019-03-04T16:53:01.310Z,12
2019-03-04T16:58:02.097Z,12
2019-03-04T17:03:02.425Z,12
2019-03-04T17:08:02.103Z,12
2019-03-04T17:13:02.074Z,12
2019-03-04T17:18:04.685Z,12
2019-03-04T17:23:03.607Z,12
2019-03-04T17:28:03.553Z,12
2019-03-04T17:33:03.540Z,12
2019-03-04T17:38:03.542Z,12
2019-03-04T17:43:03.511Z,12
2019-03-04T17:48:04.637Z,12
2019-03-04T17:53:03.550Z,12
2019-03-04T17:58:03.514Z,12
2019-03-04T18:03:03.498Z,12
2019-03-04T18:08:03.533Z,12
2019-03-04T18:13:03.504Z,12
2019-03-04T18:18:03.498Z,11.9
2019-03-04T18:23:03.483Z,11.9
2019-03-04T18:28:03.481Z,11.9
2019-03-04T18:33:03.501Z,11.9
2019-03-04T18:38:03.474Z,11.9
2019-03-04T18:43:03.452Z,11.9
2019-03-04T18:48:03.496Z,11.9
2019-03-04T18:53:03.439Z,11.8
2019-03-04T18:58:04.637Z,11.9
2019-03-04T19:03:03.425Z,11.9
2019-03-04T19:08:03.432Z,11.8
2019-03-04T19:13:03.412Z,11.9
2019-03-04T19:18:03.415Z,11.9
2019-03-04T19:23:03.414Z,11.9
2019-03-04T19:28:03.417Z,11.9
2019-03-04T19:33:03.405Z,11.9
2019-03-04T19:38:03.384Z,11.8
2019-03-04T19:43:03.362Z,11.8
2019-03-04T19:48:03.413Z,11.8
2019-03-04T19:53:03.387Z,11.8
2019-03-04T19:58:03.379Z,11.8
2019-03-04T20:03:03.388Z,11.8
2019-03-04T20:08:03.370Z,11.8
2019-03-04T20:13:03.368Z,11.8
2019-03-04T20:18:03.387Z,11.8
2019-03-04T20:23:03.354Z,11.8
2019-03-04T20:28:03.380Z,11.8
2019-03-04T20:33:03.373Z,11.8
2019-03-04T20:38:03.339Z,11.8
2019-03-04T20:43:03.316Z,11.8
2019-03-04T20:48:03.374Z,11.8
2019-03-04T20:53:03.319Z,11.8
2019-03-04T20:58:03.291Z,11.8
2019-03-04T21:03:03.286Z,11.8
2019-03-04T21:08:03.290Z,11.9
2019-03-04T21:13:03.257Z,11.9
2019-03-04T21:18:03.277Z,11.9
2019-03-04T21:23:03.326Z,11.8
2019-03-04T21:28:03.234Z,11.8
2019-03-04T21:33:03.248Z,11.8
2019-03-04T21:38:03.245Z,11.8
2019-03-04T21:43:03.264Z,11.8
2019-03-04T21:48:03.314Z,11.8
2019-03-04T21:53:03.276Z,11.8
2019-03-04T21:58:03.336Z,11.9
2019-03-04T22:03:03.244Z,11.8
2019-03-04T22:08:03.254Z,11.9
2019-03-04T22:13:03.245Z,11.9
2019-03-04T22:18:03.259Z,11.9
2019-03-04T22:23:03.246Z,11.8
2019-03-04T22:28:03.281Z,11.8
2019-03-04T22:33:03.231Z,11.9
2019-03-04T22:38:03.225Z,11.9
2019-03-04T22:43:03.198Z,11.9
2019-03-04T22:48:03.258Z,11.8
2019-03-04T22:53:03.231Z,11.8
2019-03-04T22:58:03.183Z,11.8
2019-03-04T23:03:03.154Z,11.9
2019-03-04T23:08:03.224Z,11.8
2019-03-04T23:13:03.144Z,11.8
2019-03-04T23:18:03.157Z,11.8
2019-03-04T23:23:03.115Z,11.8
2019-03-04T23:28:03.115Z,11.8
2019-03-04T23:33:03.151Z,11.7
2019-03-04T23:38:03.107Z,11.8
2019-03-04T23:43:03.082Z,11.7
2019-03-04T23:48:03.115Z,11.7
2019-03-04T23:53:03.143Z,11.7
